Time;durP1;ratioP1;P1;durP2;ratioP2;P2;SDS_P1;SDS_P2;PMS_P1;PMS_P2;Temp;Humidity;BMP_temperature;BMP_pressure;BME280_temperature;BME280_humidity;BME280_pressure;Samples;Min_cycle;Max_cycle;Signal;HPM_P1;HPM_P2
2024/02/11 00:00:47;;;;;;;14.98;8.07;;;;;;;17.52;54.71;98346.00;4924858;29;20028;-65
2024/02/11 00:03:14;;;;;;;14.88;8.38;;;;;;;17.50;54.45;98348.13;4924521;29;20032;-65
2024/02/11 00:05:40;;;;;;;11.60;6.72;;;;;;;17.49;54.78;98349.16;4923530;29;20115;-65
2024/02/11 00:08:05;;;;;;;13.95;7.32;;;;;;;17.49;54.54;98343.75;4931589;29;20123;-65
2024/02/11 00:10:30;;;;;;;13.43;7.20;;;;;;;17.47;54.63;98332.34;4928354;28;20032;-65
2024/02/11 00:12:57;;;;;;;11.57;7.55;;;;;;;17.48;54.49;98339.41;4923907;29;20031;-65
2024/02/11 00:15:23;;;;;;;11.52;7.75;;;;;;;17.45;54.63;98334.44;4927102;28;20087;-65
2024/02/11 00:17:48;;;;;;;12.80;7.13;;;;;;;17.47;54.58;98330.44;4923081;29;20036;-65
2024/02/11 00:20:14;;;;;;;13.02;7.50;;;;;;;17.48;54.77;98331.28;4926683;29;20115;-66
2024/02/11 00:22:40;;;;;;;10.85;7.75;;;;;;;17.48;54.31;98331.28;4910341;29;20509;-65
2024/02/11 00:25:10;;;;;;;12.23;7.72;;;;;;;17.46;54.13;98334.22;4958052;28;20376;-66
2024/02/11 00:27:44;;;;;;;16.27;6.95;;;;;;;17.44;54.46;98336.34;4924228;29;20039;-66
2024/02/11 00:30:10;;;;;;;14.07;7.72;;;;;;;17.44;54.75;98338.22;4925049;29;20039;-66
2024/02/11 00:32:37;;;;;;;12.88;7.53;;;;;;;17.42;54.77;98332.22;4908593;29;20407;-65
2024/02/11 00:35:03;;;;;;;12.35;7.30;;;;;;;17.40;55.12;98327.03;4924612;29;20032;-65
2024/02/11 00:37:29;;;;;;;13.32;7.65;;;;;;;17.38;54.99;98323.75;4925109;29;20035;-66
2024/02/11 00:39:56;;;;;;;12.23;7.50;;;;;;;17.34;54.53;98327.13;4924239;29;20044;-66
2024/02/11 00:42:21;;;;;;;13.68;7.25;;;;;;;17.29;55.15;98324.31;4923520;29;20032;-64
2024/02/11 00:44:49;;;;;;;14.95;7.75;;;;;;;17.31;54.46;98324.91;4925307;29;20563;-65
2024/02/11 00:47:15;;;;;;;12.55;7.20;;;;;;;17.28;54.53;98328.09;4908606;29;20032;-65
2024/02/11 00:49:40;;;;;;;15.38;7.43;;;;;;;17.28;55.06;98341.63;4924827;29;20055;-65
2024/02/11 00:52:05;;;;;;;15.85;8.05;;;;;;;17.26;55.44;98339.13;4927022;29;20074;-65
2024/02/11 00:54:35;;;;;;;14.00;8.10;;;;;;;17.23;54.78;98336.06;4924689;29;20031;-65
2024/02/11 00:57:01;;;;;;;13.77;6.78;;;;;;;17.24;54.51;98337.72;4925365;29;20040;-65
2024/02/11 00:59:26;;;;;;;14.38;7.47;;;;;;;17.21;55.38;98330.06;4924268;29;20079;-65
2024/02/11 01:01:51;;;;;;;15.45;7.85;;;;;;;17.23;55.14;98336.06;4924520;29;20040;-65
2024/02/11 01:04:17;;;;;;;15.00;7.22;;;;;;;17.22;55.18;98337.16;4908802;29;20037;-64
2024/02/11 01:06:42;;;;;;;13.32;7.38;;;;;;;17.20;56.15;98344.66;4922970;29;20068;-65
2024/02/11 01:09:08;;;;;;;13.73;6.70;;;;;;;17.19;54.91;98348.44;4940856;29;20035;-65
2024/02/11 01:11:33;;;;;;;13.57;7.63;;;;;;;17.15;55.92;98348.06;4908201;29;20035;-66
2024/02/11 01:13:58;;;;;;;15.30;7.85;;;;;;;17.14;55.11;98341.00;4938097;29;20036;-66
2024/02/11 01:16:24;;;;;;;13.35;7.15;;;;;;;17.10;55.93;98344.41;4929038;29;20138;-66
2024/02/11 01:18:49;;;;;;;13.68;8.07;;;;;;;17.08;55.67;98333.81;4928440;29;20060;-66
2024/02/11 01:21:15;;;;;;;15.63;7.70;;;;;;;17.10;55.21;98347.09;4932152;29;20039;-65
2024/02/11 01:23:40;;;;;;;15.38;6.82;;;;;;;17.05;55.95;98339.69;4937644;29;20523;-65
2024/02/11 01:26:05;;;;;;;14.75;7.78;;;;;;;17.08;55.10;98341.13;4939754;29;20043;-65
2024/02/11 01:28:31;;;;;;;14.55;8.00;;;;;;;17.08;56.09;98343.81;4940423;29;20031;-65
2024/02/11 01:30:57;;;;;;;19.40;8.50;;;;;;;17.07;55.37;98339.44;4923425;29;20028;-65
2024/02/11 01:33:23;;;;;;;14.95;7.65;;;;;;;17.05;55.55;98346.97;4940947;29;20130;-65
2024/02/11 01:35:48;;;;;;;11.93;7.28;;;;;;;17.03;55.76;98338.28;4940108;29;20512;-65
2024/02/11 01:38:14;;;;;;;12.35;7.22;;;;;;;17.02;55.97;98342.03;4940373;29;20058;-64
2024/02/11 01:40:40;;;;;;;16.23;8.00;;;;;;;17.03;55.94;98341.00;4937694;29;20059;-65
2024/02/11 01:43:09;;;;;;;13.05;7.50;;;;;;;16.98;55.80;98335.44;4921377;29;20045;-65
2024/02/11 01:45:38;;;;;;;18.95;8.43;;;;;;;16.99;55.92;98342.50;4937229;29;20032;-64
2024/02/11 01:48:04;;;;;;;14.25;7.63;;;;;;;17.00;55.89;98344.16;4936558;29;20036;-66
2024/02/11 01:50:32;;;;;;;14.20;8.70;;;;;;;16.99;55.82;98334.38;4936681;29;20406;-65
2024/02/11 01:52:58;;;;;;;16.13;7.70;;;;;;;17.01;55.32;98340.38;4937371;29;20027;-65
2024/02/11 01:55:24;;;;;;;16.30;7.68;;;;;;;17.02;56.30;98342.03;4936870;29;20031;-64
2024/02/11 01:57:51;;;;;;;11.65;7.25;;;;;;;17.05;55.41;98342.41;4937242;29;20090;-64
2024/02/11 02:00:18;;;;;;;13.30;7.47;;;;;;;17.02;56.01;98336.63;4921001;28;20524;-64
2024/02/11 02:02:44;;;;;;;14.65;7.75;;;;;;;17.00;55.77;98333.34;4938282;29;20027;-65
2024/02/11 02:05:09;;;;;;;15.00;7.90;;;;;;;17.01;55.34;98333.09;4936943;29;20506;-65
2024/02/11 02:07:35;;;;;;;14.88;8.40;;;;;;;16.98;55.04;98330.00;4936578;29;20028;-65
2024/02/11 02:10:01;;;;;;;12.68;7.45;;;;;;;16.98;55.19;98340.84;4936545;29;20030;-64
2024/02/11 02:12:27;;;;;;;11.27;7.32;;;;;;;16.95;54.82;98342.13;4937804;29;20503;-65
2024/02/11 02:14:52;;;;;;;10.77;6.75;;;;;;;16.95;55.88;98341.28;4920924;29;20031;-65
2024/02/11 02:17:17;;;;;;;12.73;7.05;;;;;;;16.92;55.94;98347.19;4937725;29;20471;-64
2024/02/11 02:19:43;;;;;;;18.63;7.50;;;;;;;16.91;55.67;98340.94;4938004;29;20031;-64
2024/02/11 02:22:08;;;;;;;9.60;6.82;;;;;;;16.89;55.51;98335.75;4920525;29;20034;-64
2024/02/11 02:24:33;;;;;;;12.65;7.20;;;;;;;16.94;54.95;98336.97;4920493;29;20074;-64
2024/02/11 02:26:59;;;;;;;13.20;7.45;;;;;;;16.96;54.98;98342.94;4920031;28;20032;-65
2024/02/11 02:29:24;;;;;;;11.98;6.35;;;;;;;16.98;54.63;98346.25;4937682;29;20027;-65
2024/02/11 02:31:50;;;;;;;11.02;5.63;;;;;;;16.98;55.64;98330.00;4936150;29;20028;-65
2024/02/11 02:34:15;;;;;;;6.65;3.85;;;;;;;17.01;55.38;98340.38;4935977;29;20160;-65
2024/02/11 02:36:40;;;;;;;7.20;4.45;;;;;;;17.01;55.78;98343.09;4937616;29;20083;-65
2024/02/11 02:39:09;;;;;;;6.68;2.78;;;;;;;17.01;55.51;98345.78;4936224;29;20027;-65
2024/02/11 02:41:35;;;;;;;3.95;3.30;;;;;;;17.03;55.61;98351.81;4920579;29;20500;-64
2024/02/11 02:44:00;;;;;;;4.22;1.92;;;;;;;17.06;56.00;98348.63;4937298;29;20038;-64
2024/02/11 02:46:30;;;;;;;4.88;2.80;;;;;;;17.07;55.47;98350.28;4936265;28;20039;-65
2024/02/11 02:48:56;;;;;;;4.63;2.47;;;;;;;17.08;55.75;98346.53;4920767;29;20036;-64
2024/02/11 02:51:21;;;;;;;2.28;1.63;;;;;;;17.14;55.33;98353.72;4919795;29;20099;-65
2024/02/11 02:53:49;;;;;;;4.15;1.23;;;;;;;17.16;55.46;98346.19;4936953;29;20118;-65
2024/02/11 02:56:16;;;;;;;2.08;0.98;;;;;;;17.17;56.25;98350.56;4935650;29;20397;-65
2024/02/11 02:58:41;;;;;;;11.10;1.52;;;;;;;17.20;55.07;98347.34;4935531;29;20042;-65
2024/02/11 03:01:06;;;;;;;1.63;1.10;;;;;;;17.23;55.63;98349.59;4919519;29;20126;-65
2024/02/11 03:03:32;;;;;;;1.48;1.13;;;;;;;17.25;55.77;98342.88;4919737;29;20036;-64
2024/02/11 03:05:57;;;;;;;3.00;1.60;;;;;;;17.25;56.08;98342.09;4935668;29;20447;-64
2024/02/11 03:08:23;;;;;;;4.00;2.05;;;;;;;17.26;55.95;98346.44;4935621;29;20036;-65
2024/02/11 03:10:48;;;;;;;2.45;1.75;;;;;;;17.25;55.88;98352.91;4936513;29;20028;-65
2024/02/11 03:13:13;;;;;;;5.85;1.40;;;;;;;17.26;55.67;98359.97;4935442;29;20040;-64
2024/02/11 03:15:39;;;;;;;2.05;1.65;;;;;;;17.29;54.78;98354.91;4936582;29;20395;-64
2024/02/11 03:18:04;;;;;;;3.00;1.70;;;;;;;17.29;55.61;98354.09;4919527;29;20063;-64
2024/02/11 03:20:30;;;;;;;2.08;1.42;;;;;;;17.31;54.92;98351.97;4937038;28;20375;-64
2024/02/11 03:22:56;;;;;;;3.75;1.77;;;;;;;17.30;55.29;98355.75;4935472;29;20036;-64
2024/02/11 03:25:21;;;;;;;3.33;1.98;;;;;;;17.26;55.30;98343.72;4935193;29;20050;-64
2024/02/11 03:27:52;;;;;;;1.95;1.52;;;;;;;17.33;55.83;98357.97;4935295;29;20495;-65
2024/02/11 03:30:21;;;;;;;5.10;1.63;;;;;;;17.35;55.04;98355.88;4935300;29;20136;-65
2024/02/11 03:32:48;;;;;;;2.50;1.95;;;;;;;17.35;55.66;98363.97;4934731;29;20551;-65
2024/02/11 03:35:13;;;;;;;2.72;1.77;;;;;;;17.34;55.19;98357.75;4934994;29;20041;-64
2024/02/11 03:37:39;;;;;;;6.03;2.13;;;;;;;17.37;55.56;98367.28;4934364;29;20024;-64
2024/02/11 03:40:12;;;;;;;2.38;1.45;;;;;;;17.36;55.69;98374.56;4935156;29;20036;-65
2024/02/11 03:42:37;;;;;;;2.40;1.85;;;;;;;17.35;55.38;98372.09;4936760;29;20028;-64
2024/02/11 03:45:08;;;;;;;2.20;1.65;;;;;;;17.33;56.00;98372.34;4935601;29;20063;-65
2024/02/11 03:47:33;;;;;;;3.22;1.70;;;;;;;17.34;55.22;98378.56;4935071;29;20042;-66
2024/02/11 03:49:59;;;;;;;3.67;1.90;;;;;;;17.33;55.26;98380.47;4934804;29;20123;-66
2024/02/11 03:52:24;;;;;;;1.73;1.33;;;;;;;17.34;55.76;98381.25;4919029;29;20062;-66
2024/02/11 03:54:49;;;;;;;4.53;2.42;;;;;;;17.35;56.10;98380.22;4936192;29;20051;-65
2024/02/11 03:57:15;;;;;;;2.90;1.85;;;;;;;17.36;55.46;98392.72;4934814;29;20563;-65
2024/02/11 03:59:45;;;;;;;4.07;2.17;;;;;;;17.35;56.28;98391.03;4934671;29;20407;-65
2024/02/11 04:02:10;;;;;;;6.53;2.25;;;;;;;17.32;55.90;98391.50;4934604;29;20103;-65
2024/02/11 04:04:36;;;;;;;3.17;2.17;;;;;;;17.29;55.96;98403.63;4918661;29;20089;-66
2024/02/11 04:07:01;;;;;;;4.28;2.05;;;;;;;17.26;56.13;98406.78;4934635;29;20032;-66
2024/02/11 04:09:28;;;;;;;3.35;2.60;;;;;;;17.22;55.91;98404.78;4934559;29;20407;-66
2024/02/11 04:12:01;;;;;;;2.80;2.13;;;;;;;17.19;55.59;98413.38;4935682;29;20517;-67
2024/02/11 04:14:26;;;;;;;2.83;1.92;;;;;;;17.11;55.65;98427.22;4934860;29;20114;-67
2024/02/11 04:16:55;;;;;;;1.50;1.40;;;;;;;17.00;55.45;98425.28;4934883;29;20186;-67
2024/02/11 04:19:24;;;;;;;1.00;0.82;;;;;;;16.89;55.92;98435.81;4919478;29;20499;-67
2024/02/11 04:21:49;;;;;;;1.20;0.95;;;;;;;16.81;56.60;98446.13;4934764;29;20403;-67
2024/02/11 04:24:16;;;;;;;1.30;0.98;;;;;;;16.73;55.97;98439.16;4919072;29;20032;-67
2024/02/11 04:26:42;;;;;;;1.73;0.90;;;;;;;16.66;56.18;98457.34;4936341;29;20399;-67
2024/02/11 04:29:10;;;;;;;1.77;1.10;;;;;;;16.61;55.63;98459.88;4934839;29;20066;-66
2024/02/11 04:31:39;;;;;;;1.80;0.95;;;;;;;16.57;55.42;98458.69;4935906;29;20032;-66
2024/02/11 04:34:05;;;;;;;1.05;0.75;;;;;;;16.57;55.98;98468.66;4934429;29;20040;-67
2024/02/11 04:36:32;;;;;;;1.63;1.10;;;;;;;16.54;56.37;98471.81;4934761;29;20036;-66
2024/02/11 04:38:59;;;;;;;1.67;0.90;;;;;;;16.52;55.04;98476.59;4935785;28;20043;-66
2024/02/11 04:41:25;;;;;;;1.45;0.90;;;;;;;16.50;55.75;98479.50;4934792;29;20032;-66
2024/02/11 04:43:51;;;;;;;2.17;0.88;;;;;;;16.36;55.75;98467.19;4934866;29;20064;-66
2024/02/11 04:46:17;;;;;;;1.00;0.90;;;;;;;16.41;56.31;98485.47;4919472;29;20047;-66
2024/02/11 04:48:43;;;;;;;2.15;1.55;;;;;;;16.35;55.28;98497.97;4936421;29;20563;-66
2024/02/11 04:51:09;;;;;;;3.60;1.35;;;;;;;16.26;55.22;98507.41;4941720;29;20492;-65
2024/02/11 04:53:37;;;;;;;3.42;1.13;;;;;;;16.20;55.78;98502.91;4921983;29;20108;-66
2024/02/11 04:56:03;;;;;;;4.80;1.50;;;;;;;16.17;54.70;98516.84;4923254;29;20523;-66
2024/02/11 04:58:31;;;;;;;8.10;0.90;;;;;;;16.08;55.84;98521.69;4921601;29;20036;-65
2024/02/11 05:00:57;;;;;;;3.95;1.23;;;;;;;16.10;55.51;98529.59;4918984;29;20032;-66
2024/02/11 05:03:24;;;;;;;3.50;1.23;;;;;;;16.09;55.27;98536.03;4903239;29;20120;-65
2024/02/11 05:05:50;;;;;;;7.13;1.38;;;;;;;16.05;55.45;98534.84;4919895;29;20123;-66
2024/02/11 05:08:19;;;;;;;3.17;1.02;;;;;;;16.04;54.49;98535.88;4918692;29;20493;-65
2024/02/11 05:10:45;;;;;;;5.78;1.33;;;;;;;16.02;54.74;98544.22;4918730;29;20095;-65
2024/02/11 05:13:14;;;;;;;2.72;1.35;;;;;;;16.00;55.08;98548.16;4920084;29;20122;-65
2024/02/11 05:15:44;;;;;;;6.50;1.35;;;;;;;15.95;54.44;98545.28;4918626;29;20039;-65
2024/02/11 05:18:14;;;;;;;5.97;1.13;;;;;;;15.94;55.78;98543.66;4902678;29;20063;-65
2024/02/11 05:20:41;;;;;;;4.78;1.75;;;;;;;15.96;55.16;98538.84;4921642;29;20035;-66
2024/02/11 05:23:09;;;;;;;8.35;1.60;;;;;;;15.96;54.66;98541.56;4937726;29;20083;-64
2024/02/11 05:25:35;;;;;;;4.22;2.10;;;;;;;15.97;55.28;98546.72;4921300;29;20387;-67
2024/02/11 05:28:09;;;;;;;6.90;1.45;;;;;;;15.97;54.55;98549.41;4937351;29;20023;-66
2024/02/11 05:30:38;;;;;;;5.18;1.48;;;;;;;15.95;54.81;98556.09;4921684;29;20043;-65
2024/02/11 05:33:06;;;;;;;4.10;1.55;;;;;;;15.93;54.72;98547.38;4921474;29;20055;-65
2024/02/11 05:35:34;;;;;;;6.63;1.50;;;;;;;15.95;54.18;98556.09;4937557;29;20391;-65
2024/02/11 05:38:01;;;;;;;7.53;1.60;;;;;;;15.95;54.08;98561.50;4921639;29;20044;-65
2024/02/11 05:40:56;;;;;;;5.63;1.40;;;;;;;15.94;54.48;98555.25;4921540;29;20094;-65
2024/02/11 05:43:22;;;;;;;4.75;1.40;;;;;;;15.96;54.62;98563.16;4935988;29;20032;-65
2024/02/11 05:45:48;;;;;;;6.00;1.42;;;;;;;15.96;54.60;98564.00;4937031;29;20471;-66
2024/02/11 05:48:14;;;;;;;5.97;1.48;;;;;;;15.97;54.00;98564.81;4937101;29;20171;-65
2024/02/11 05:50:39;;;;;;;4.32;1.20;;;;;;;15.96;54.62;98557.75;4938271;29;20051;-65
2024/02/11 05:53:05;;;;;;;8.45;1.85;;;;;;;15.97;53.99;98562.91;4936685;29;20066;-65
2024/02/11 05:55:31;;;;;;;6.45;1.38;;;;;;;15.99;55.01;98568.13;4920815;29;20060;-65
2024/02/11 05:57:56;;;;;;;10.93;2.35;;;;;;;15.96;53.82;98560.44;4936909;29;20040;-65
2024/02/11 06:00:24;;;;;;;8.68;2.15;;;;;;;16.00;54.89;98553.56;4920142;29;20130;-65
2024/02/11 06:02:51;;;;;;;7.30;1.58;;;;;;;16.01;54.27;98555.22;4937667;29;20034;-65
2024/02/11 06:05:17;;;;;;;6.50;1.60;;;;;;;16.00;53.81;98559.78;4937946;29;20036;-65
2024/02/11 06:07:49;;;;;;;11.68;1.95;;;;;;;16.00;53.66;98554.38;4936961;29;20479;-65
2024/02/11 06:10:15;;;;;;;7.15;1.80;;;;;;;16.01;53.33;98574.13;4921329;29;20039;-65
2024/02/11 06:12:42;;;;;;;5.10;1.95;;;;;;;16.00;54.37;98580.56;4936402;29;20035;-65
2024/02/11 06:15:10;;;;;;;9.15;2.10;;;;;;;16.01;54.31;98584.91;4937827;29;20050;-65
2024/02/11 06:17:36;;;;;;;4.80;1.90;;;;;;;15.99;53.65;98590.56;4936341;29;20411;-65
2024/02/11 06:20:03;;;;;;;4.43;1.58;;;;;;;15.99;54.26;98595.13;4920516;29;20039;-65
2024/02/11 06:22:29;;;;;;;5.47;1.38;;;;;;;16.02;54.35;98605.50;4920357;29;20035;-65
2024/02/11 06:24:56;;;;;;;5.38;1.60;;;;;;;16.03;53.77;98612.53;4936285;29;20063;-66
2024/02/11 06:27:22;;;;;;;4.80;1.63;;;;;;;16.02;53.54;98616.28;4936347;29;20040;-66
2024/02/11 06:29:47;;;;;;;9.85;2.03;;;;;;;16.01;53.62;98614.63;4936278;29;20063;-65
2024/02/11 06:32:13;;;;;;;6.63;1.95;;;;;;;16.02;53.51;98622.53;4920372;29;20050;-65
2024/02/11 06:34:40;;;;;;;8.63;2.25;;;;;;;16.02;53.55;98625.22;4920472;29;20140;-65
2024/02/11 06:37:06;;;;;;;6.25;1.98;;;;;;;16.04;54.17;98633.94;4935897;29;20036;-65
2024/02/11 06:39:31;;;;;;;9.48;1.70;;;;;;;16.02;53.59;98629.78;4935891;29;20468;-67
2024/02/11 06:42:02;;;;;;;4.15;1.92;;;;;;;15.99;53.59;98638.34;4935689;29;20035;-66
2024/02/11 06:44:28;;;;;;;7.30;2.28;;;;;;;15.98;54.51;98642.06;4935663;29;20504;-65
2024/02/11 06:46:56;;;;;;;5.70;2.38;;;;;;;15.97;53.86;98640.44;4935723;29;20044;-65
2024/02/11 06:49:28;;;;;;;8.20;2.95;;;;;;;15.96;53.92;98638.75;4935969;29;20036;-66
2024/02/11 06:51:55;;;;;;;12.25;2.70;;;;;;;15.94;53.12;98640.84;4935884;29;20035;-66
2024/02/11 06:54:21;;;;;;;6.80;2.20;;;;;;;15.95;53.76;98647.91;4935685;29;20058;-66
2024/02/11 06:56:47;;;;;;;4.78;2.40;;;;;;;15.92;53.36;98654.56;4935779;29;20032;-66
2024/02/11 06:59:14;;;;;;;6.38;2.08;;;;;;;15.92;53.75;98653.72;4919848;29;20087;-65
2024/02/11 07:01:41;;;;;;;5.88;3.42;;;;;;;15.93;52.92;98661.63;4935512;29;20039;-65
2024/02/11 07:04:08;;;;;;;9.52;2.88;;;;;;;15.93;53.91;98671.59;4935795;29;20032;-65
2024/02/11 07:06:34;;;;;;;7.30;2.10;;;;;;;15.91;54.14;98668.28;4919634;29;20044;-65
2024/02/11 07:08:59;;;;;;;11.43;2.33;;;;;;;15.93;53.72;98663.50;4935303;29;20398;-65
2024/02/11 07:11:25;;;;;;;4.32;2.15;;;;;;;15.96;53.34;98663.06;4936702;29;20082;-65
2024/02/11 07:13:52;;;;;;;13.13;2.58;;;;;;;15.97;53.15;98673.63;4936590;29;20057;-65
2024/02/11 07:16:18;;;;;;;5.05;2.65;;;;;;;15.94;53.18;98673.25;4936666;29;20040;-65
2024/02/11 07:18:44;;;;;;;3.88;1.75;;;;;;;15.92;53.95;98675.31;4935223;29;20038;-65
2024/02/11 07:21:12;;;;;;;8.30;2.55;;;;;;;15.93;53.76;98682.41;4935149;29;20428;-65
2024/02/11 07:23:38;;;;;;;5.70;2.33;;;;;;;15.90;53.35;98682.81;4935100;29;20035;-65
2024/02/11 07:26:04;;;;;;;4.53;2.13;;;;;;;15.88;53.91;98685.75;4936215;29;20047;-65
2024/02/11 07:28:30;;;;;;;4.25;2.22;;;;;;;15.88;52.88;98690.31;4935019;29;20498;-65
2024/02/11 07:30:56;;;;;;;6.18;2.58;;;;;;;15.89;53.76;98691.97;4919206;29;20039;-65
2024/02/11 07:33:23;;;;;;;7.68;2.40;;;;;;;15.87;53.13;98696.75;4918911;29;20044;-65
2024/02/11 07:35:48;;;;;;;8.27;2.67;;;;;;;15.88;53.66;98701.94;4934813;29;20042;-66
2024/02/11 07:38:14;;;;;;;7.75;2.30;;;;;;;15.88;52.88;98706.53;4919244;29;20031;-66
2024/02/11 07:40:40;;;;;;;10.35;3.22;;;;;;;15.91;53.95;98708.78;4936207;29;20040;-65
2024/02/11 07:43:06;;;;;;;11.93;2.90;;;;;;;15.92;54.29;98713.13;4918907;29;20495;-65
2024/02/11 07:45:31;;;;;;;7.50;2.53;;;;;;;15.93;53.28;98717.50;4935191;29;20395;-66
2024/02/11 07:47:57;;;;;;;6.38;2.78;;;;;;;15.95;52.90;98723.50;4934891;29;20035;-65
2024/02/11 07:50:22;;;;;;;9.70;2.90;;;;;;;15.98;52.73;98720.38;4936012;29;20044;-66
2024/02/11 07:52:47;;;;;;;4.30;2.55;;;;;;;15.97;53.32;98732.25;4919192;29;20111;-65
2024/02/11 07:55:13;;;;;;;5.63;2.00;;;;;;;15.94;53.69;98725.38;4934819;29;20059;-65
2024/02/11 07:57:38;;;;;;;4.82;2.03;;;;;;;15.98;53.39;98734.72;4935973;29;20083;-65
2024/02/11 08:00:07;;;;;;;11.50;3.00;;;;;;;15.97;52.94;98730.34;4918891;29;20038;-65
2024/02/11 08:02:33;;;;;;;5.55;3.00;;;;;;;15.98;53.37;98731.19;4936866;29;20040;-65
2024/02/11 08:04:59;;;;;;;10.38;2.88;;;;;;;16.00;53.07;98732.63;4937166;29;20068;-64
2024/02/11 08:07:24;;;;;;;5.15;2.63;;;;;;;16.02;53.71;98730.56;4936724;29;20039;-65
2024/02/11 08:09:50;;;;;;;7.75;2.75;;;;;;;16.08;53.94;98740.47;4936191;29;20035;-65
2024/02/11 08:12:15;;;;;;;7.45;2.78;;;;;;;16.13;54.00;98743.38;4934774;29;20035;-65
2024/02/11 08:14:40;;;;;;;7.72;2.85;;;;;;;16.19;52.64;98742.47;4934845;29;20407;-65
2024/02/11 08:17:06;;;;;;;8.45;2.80;;;;;;;16.20;53.47;98740.63;4936695;29;20027;-64
2024/02/11 08:19:31;;;;;;;4.53;2.47;;;;;;;16.23;52.75;98742.88;4934880;29;20608;-65
2024/02/11 08:21:57;;;;;;;7.93;3.38;;;;;;;16.25;53.12;98748.91;4935768;29;20119;-65
2024/02/11 08:24:23;;;;;;;12.02;3.28;;;;;;;16.28;53.35;98749.28;4935375;29;20122;-65
2024/02/11 08:26:48;;;;;;;10.25;2.70;;;;;;;16.29;53.33;98759.06;4935045;29;20474;-65
2024/02/11 08:29:14;;;;;;;5.65;2.55;;;;;;;16.33;52.64;98760.28;4935339;29;20443;-65
2024/02/11 08:31:39;;;;;;;11.98;4.00;;;;;;;16.36;53.43;98764.41;4933488;29;20495;-65
2024/02/11 08:34:05;;;;;;;9.18;3.38;;;;;;;16.36;53.13;98761.72;4934570;29;20060;-67
2024/02/11 08:36:30;;;;;;;12.63;2.75;;;;;;;16.38;52.92;98762.34;4934161;29;20115;-66
2024/02/11 08:38:58;;;;;;;9.40;4.00;;;;;;;16.40;53.25;98771.06;4918114;29;20024;-65
2024/02/11 08:41:23;;;;;;;7.47;2.97;;;;;;;16.43;52.88;98767.94;4934012;29;20030;-65
2024/02/11 08:43:49;;;;;;;8.20;2.75;;;;;;;16.44;52.50;98772.28;4933968;29;20024;-65
2024/02/11 08:46:14;;;;;;;5.88;2.45;;;;;;;16.45;53.29;98782.03;4933862;29;20023;-66
2024/02/11 08:48:39;;;;;;;12.68;3.47;;;;;;;16.46;52.96;98775.59;4933222;29;20080;-65
2024/02/11 08:51:05;;;;;;;6.65;3.10;;;;;;;16.58;53.00;98779.28;4933973;29;20098;-65
2024/02/11 08:53:30;;;;;;;14.38;4.00;;;;;;;16.66;52.79;98779.03;4928086;29;20058;-64
2024/02/11 08:55:57;;;;;;;8.55;2.72;;;;;;;16.71;52.32;98790.03;4915917;29;20481;-65
2024/02/11 08:58:23;;;;;;;6.88;2.92;;;;;;;16.76;52.68;98787.50;4899313;29;20029;-65
2024/02/11 09:00:50;;;;;;;7.97;2.80;;;;;;;16.78;52.59;98785.38;4916063;29;20028;-65
2024/02/11 09:03:15;;;;;;;6.60;2.50;;;;;;;16.80;52.11;98786.00;4914986;29;20028;-64
2024/02/11 09:05:42;;;;;;;12.55;4.38;;;;;;;16.81;52.10;98784.94;4916013;28;20072;-64
2024/02/11 09:08:07;;;;;;;9.18;3.00;;;;;;;16.82;52.28;98786.63;4915045;29;20079;-63
2024/02/11 09:10:33;;;;;;;8.93;3.47;;;;;;;16.82;52.32;98794.72;4899248;29;20024;-64
2024/02/11 09:12:59;;;;;;;12.52;3.83;;;;;;;16.85;51.91;98793.47;4931814;29;20031;-63
2024/02/11 09:15:24;;;;;;;10.43;3.63;;;;;;;16.88;52.77;98795.72;4933875;29;20047;-63
2024/02/11 09:17:50;;;;;;;10.50;3.28;;;;;;;16.91;52.51;98797.16;4934986;29;20028;-63
2024/02/11 09:20:16;;;;;;;11.25;3.17;;;;;;;16.96;52.56;98794.63;4933124;29;20485;-63
2024/02/11 09:22:41;;;;;;;6.82;2.60;;;;;;;16.97;52.45;98805.25;4931601;29;20447;-63
2024/02/11 09:25:11;;;;;;;9.23;3.45;;;;;;;17.00;51.91;98803.97;4934013;29;20383;-63
2024/02/11 09:27:38;;;;;;;9.35;2.83;;;;;;;17.05;51.67;98796.84;4934598;29;20047;-63
2024/02/11 09:30:07;;;;;;;6.32;2.63;;;;;;;17.10;52.28;98801.59;4934482;29;20117;-64
2024/02/11 09:32:33;;;;;;;13.18;3.17;;;;;;;17.16;52.12;98804.25;4931066;29;20123;-63
2024/02/11 09:34:59;;;;;;;8.00;2.53;;;;;;;17.17;51.96;98810.50;4917558;29;20106;-63
2024/02/11 09:37:25;;;;;;;7.20;3.05;;;;;;;17.18;52.35;98798.59;4919785;29;20068;-63
2024/02/11 09:39:50;;;;;;;7.35;2.53;;;;;;;17.20;51.82;98804.59;4919161;29;20035;-63
2024/02/11 09:42:19;;;;;;;7.78;2.75;;;;;;;17.22;52.14;98816.91;4919537;29;20408;-63
2024/02/11 09:44:47;;;;;;;7.28;2.55;;;;;;;17.26;51.78;98812.69;4919584;29;20048;-63
2024/02/11 09:47:15;;;;;;;6.72;2.85;;;;;;;17.25;51.80;98812.91;4923205;29;20028;-63
2024/02/11 09:49:42;;;;;;;11.60;3.17;;;;;;;17.29;52.45;98824.94;4938109;29;20083;-63
2024/02/11 09:52:08;;;;;;;7.00;3.05;;;;;;;17.28;51.66;98821.41;4938304;29;20063;-64
2024/02/11 09:54:34;;;;;;;7.07;2.38;;;;;;;17.31;52.31;98822.84;4938198;29;20046;-63
2024/02/11 09:57:00;;;;;;;13.70;2.80;;;;;;;17.33;52.04;98827.00;4936714;29;20107;-63
2024/02/11 09:59:26;;;;;;;8.73;3.03;;;;;;;17.39;51.99;98814.47;4933549;29;20032;-63
2024/02/11 10:01:54;;;;;;;11.77;2.90;;;;;;;17.48;51.22;98813.09;4917322;29;20036;-64
2024/02/11 10:04:28;;;;;;;10.13;3.20;;;;;;;17.56;51.42;98820.97;4901604;29;20036;-64
2024/02/11 10:06:53;;;;;;;6.40;2.33;;;;;;;17.61;52.21;98829.28;4917278;29;20051;-64
2024/02/11 10:09:19;;;;;;;5.35;2.45;;;;;;;17.65;50.60;98829.63;4917363;29;20040;-64
2024/02/11 10:11:44;;;;;;;7.80;2.03;;;;;;;17.68;51.47;98835.44;4917615;29;20052;-63
2024/02/11 10:14:13;;;;;;;7.50;3.25;;;;;;;17.75;50.75;98843.50;4905121;29;20393;-62
2024/02/11 10:16:42;;;;;;;6.10;1.85;;;;;;;17.80;50.42;98830.94;4936453;29;20036;-64
2024/02/11 10:19:09;;;;;;;8.93;2.20;;;;;;;17.88;51.12;98840.66;4936375;29;20135;-62
2024/02/11 10:21:34;;;;;;;5.75;2.15;;;;;;;17.93;51.01;98849.75;4935961;29;20471;-63
2024/02/11 10:24:00;;;;;;;12.32;2.47;;;;;;;17.96;50.79;98851.19;4937291;29;20032;-63
2024/02/11 10:26:28;;;;;;;5.10;2.38;;;;;;;18.00;50.62;98850.53;4935947;29;20046;-65
2024/02/11 10:28:53;;;;;;;12.98;2.55;;;;;;;18.09;50.65;98852.94;4920228;29;20035;-64
2024/02/11 10:31:18;;;;;;;6.55;2.33;;;;;;;18.22;50.29;98841.94;4923801;29;20571;-64
2024/02/11 10:33:44;;;;;;;4.47;2.15;;;;;;;18.39;50.60;98843.81;4916720;29;20466;-64
2024/02/11 10:36:11;;;;;;;7.47;1.95;;;;;;;18.51;50.48;98847.41;4916936;29;20040;-64
2024/02/11 10:38:36;;;;;;;7.53;2.10;;;;;;;18.58;50.49;98855.47;4917008;29;20126;-64
2024/02/11 10:41:02;;;;;;;4.57;1.67;;;;;;;18.66;50.44;98854.31;4925291;29;20134;-64
2024/02/11 10:43:28;;;;;;;3.72;1.90;;;;;;;18.73;50.25;98850.47;4935880;29;20039;-65
2024/02/11 10:45:54;;;;;;;11.40;1.75;;;;;;;18.83;49.33;98853.44;4935734;29;20036;-64
2024/02/11 10:48:19;;;;;;;10.85;1.77;;;;;;;18.87;49.71;98860.06;4935211;29;20083;-63
2024/02/11 10:51:23;;;;;;;12.07;3.03;;;;;;;18.83;49.92;98852.63;4936909;29;20032;-65
2024/02/11 10:54:03;;;;;;;;;;;;;;;18.94;49.38;98858.09;4909362;29;20057;-63
2024/02/11 10:56:30;;;;;;;6.28;1.65;;;;;;;18.98;49.72;98864.69;4919316;28;19994;-64
2024/02/11 10:59:19;;;;;;;2.95;2.08;;;;;;;19.02;49.41;98868.63;4935650;28;20020;-63
2024/02/11 11:01:45;;;;;;;8.45;1.30;;;;;;;19.05;49.63;98864.59;4935489;29;20120;-63
2024/02/11 11:04:15;;;;;;;4.70;2.25;;;;;;;19.08;49.20;98864.16;4935491;29;20111;-63
2024/02/11 11:06:41;;;;;;;7.10;2.22;;;;;;;19.09;49.14;98855.78;4935410;29;20035;-63
2024/02/11 11:09:07;;;;;;;3.38;2.08;;;;;;;19.12;48.60;98863.44;4919499;29;20036;-63
2024/02/11 11:11:32;;;;;;;6.07;1.45;;;;;;;19.24;48.98;98862.63;4935099;29;20036;-63
2024/02/11 11:14:07;;;;;;;7.78;1.45;;;;;;;19.48;48.17;98862.50;4934907;29;20175;-63
2024/02/11 11:16:38;;;;;;;6.78;1.33;;;;;;;19.48;48.48;98858.94;4935212;29;20043;-64
2024/02/11 11:19:12;;;;;;;10.38;1.90;;;;;;;19.49;48.15;98855.16;4919330;29;20047;-63
2024/02/11 11:21:38;;;;;;;6.38;1.90;;;;;;;19.59;48.23;98856.25;4917313;29;20040;-63
2024/02/11 11:24:04;;;;;;;7.25;1.20;;;;;;;19.67;48.22;98846.91;4929415;29;20047;-63
2024/02/11 11:26:30;;;;;;;5.97;1.17;;;;;;;19.72;48.49;98850.56;4935164;29;20040;-63
2024/02/11 11:29:03;;;;;;;2.00;1.08;;;;;;;19.75;47.84;98849.28;4931455;29;20040;-63